sensor_id;sensor_type;location;lat;lon;timestamp;P1;durP1;ratioP1;P2;durP2;ratioP2
21432;SDS011;18592;49.708;10.900;2022-11-20T00:01:40;16.10;;;11.30;;
21432;SDS011;18592;49.708;10.900;2022-11-20T00:03:44;17.80;;;10.70;;
21432;SDS011;18592;49.708;10.900;2022-11-20T00:05:47;15.30;;;11.20;;
21432;SDS011;18592;49.708;10.900;2022-11-20T00:07:48;15.73;;;11.17;;
21432;SDS011;18592;49.708;10.900;2022-11-20T00:09:50;15.77;;;11.00;;
21432;SDS011;18592;49.708;10.900;2022-11-20T00:11:52;15.00;;;10.70;;
21432;SDS011;18592;49.708;10.900;2022-11-20T00:14:00;15.13;;;11.37;;
21432;SDS011;18592;49.708;10.900;2022-11-20T00:16:04;16.40;;;11.40;;
21432;SDS011;18592;49.708;10.900;2022-11-20T00:18:07;16.33;;;11.80;;
21432;SDS011;18592;49.708;10.900;2022-11-20T00:20:09;17.50;;;12.10;;
21432;SDS011;18592;49.708;10.900;2022-11-20T00:22:11;16.47;;;10.97;;
21432;SDS011;18592;49.708;10.900;2022-11-20T00:24:13;16.67;;;11.13;;
21432;SDS011;18592;49.708;10.900;2022-11-20T00:26:15;15.93;;;11.27;;
21432;SDS011;18592;49.708;10.900;2022-11-20T00:28:18;16.20;;;11.47;;
21432;SDS011;18592;49.708;10.900;2022-11-20T00:30:19;15.03;;;10.83;;
21432;SDS011;18592;49.708;10.900;2022-11-20T00:32:21;16.60;;;11.77;;
21432;SDS011;18592;49.708;10.900;2022-11-20T00:34:23;18.13;;;11.00;;
21432;SDS011;18592;49.708;10.900;2022-11-20T00:36:25;16.67;;;11.60;;
21432;SDS011;18592;49.708;10.900;2022-11-20T00:38:29;16.00;;;11.07;;
21432;SDS011;18592;49.708;10.900;2022-11-20T00:40:34;17.07;;;11.90;;
21432;SDS011;18592;49.708;10.900;2022-11-20T00:42:35;17.20;;;11.73;;
21432;SDS011;18592;49.708;10.900;2022-11-20T00:44:40;16.83;;;11.50;;
21432;SDS011;18592;49.708;10.900;2022-11-20T00:46:42;16.17;;;11.53;;
21432;SDS011;18592;49.708;10.900;2022-11-20T00:48:49;17.97;;;12.07;;
21432;SDS011;18592;49.708;10.900;2022-11-20T00:50:51;15.63;;;10.83;;
21432;SDS011;18592;49.708;10.900;2022-11-20T00:52:53;17.00;;;11.33;;
21432;SDS011;18592;49.708;10.900;2022-11-20T00:54:55;16.70;;;12.00;;
21432;SDS011;18592;49.708;10.900;2022-11-20T00:56:59;17.57;;;11.90;;
21432;SDS011;18592;49.708;10.900;2022-11-20T00:59:01;17.53;;;11.77;;
21432;SDS011;18592;49.708;10.900;2022-11-20T01:01:04;16.70;;;12.00;;
21432;SDS011;18592;49.708;10.900;2022-11-20T01:03:08;17.40;;;11.80;;
21432;SDS011;18592;49.708;10.900;2022-11-20T01:05:09;16.03;;;11.43;;
21432;SDS011;18592;49.708;10.900;2022-11-20T01:07:14;17.37;;;11.30;;
21432;SDS011;18592;49.708;10.900;2022-11-20T01:09:16;14.70;;;10.73;;
21432;SDS011;18592;49.708;10.900;2022-11-20T01:11:18;14.90;;;10.73;;
21432;SDS011;18592;49.708;10.900;2022-11-20T01:13:24;14.57;;;10.40;;
21432;SDS011;18592;49.708;10.900;2022-11-20T01:15:41;15.10;;;10.77;;
21432;SDS011;18592;49.708;10.900;2022-11-20T01:17:43;16.10;;;11.30;;
21432;SDS011;18592;49.708;10.900;2022-11-20T01:19:44;16.00;;;11.30;;
21432;SDS011;18592;49.708;10.900;2022-11-20T01:21:47;15.10;;;10.87;;
21432;SDS011;18592;49.708;10.900;2022-11-20T01:23:50;15.67;;;10.70;;
21432;SDS011;18592;49.708;10.900;2022-11-20T01:25:55;16.13;;;11.07;;
21432;SDS011;18592;49.708;10.900;2022-11-20T01:27:57;15.47;;;11.43;;
21432;SDS011;18592;49.708;10.900;2022-11-20T01:29:58;17.00;;;11.97;;
21432;SDS011;18592;49.708;10.900;2022-11-20T01:32:01;15.83;;;11.07;;
21432;SDS011;18592;49.708;10.900;2022-11-20T01:34:08;16.87;;;12.13;;
21432;SDS011;18592;49.708;10.900;2022-11-20T01:36:12;16.20;;;11.37;;
21432;SDS011;18592;49.708;10.900;2022-11-20T01:38:15;17.97;;;11.93;;
21432;SDS011;18592;49.708;10.900;2022-11-20T01:40:25;17.67;;;11.77;;
21432;SDS011;18592;49.708;10.900;2022-11-20T01:42:26;17.67;;;11.13;;
21432;SDS011;18592;49.708;10.900;2022-11-20T01:46:57;16.43;;;11.33;;
21432;SDS011;18592;49.708;10.900;2022-11-20T01:51:06;16.07;;;11.50;;
21432;SDS011;18592;49.708;10.900;2022-11-20T01:53:21;16.33;;;11.40;;
21432;SDS011;18592;49.708;10.900;2022-11-20T01:55:30;15.07;;;11.00;;
21432;SDS011;18592;49.708;10.900;2022-11-20T01:57:34;15.27;;;10.63;;
21432;SDS011;18592;49.708;10.900;2022-11-20T01:59:38;16.07;;;11.13;;
21432;SDS011;18592;49.708;10.900;2022-11-20T02:01:46;15.90;;;11.50;;
21432;SDS011;18592;49.708;10.900;2022-11-20T02:03:48;18.20;;;11.50;;
21432;SDS011;18592;49.708;10.900;2022-11-20T02:08:03;15.93;;;10.37;;
21432;SDS011;18592;49.708;10.900;2022-11-20T02:10:14;14.90;;;10.60;;
21432;SDS011;18592;49.708;10.900;2022-11-20T02:12:16;15.33;;;10.93;;
21432;SDS011;18592;49.708;10.900;2022-11-20T02:14:37;16.67;;;11.37;;
21432;SDS011;18592;49.708;10.900;2022-11-20T02:16:43;16.07;;;10.40;;
21432;SDS011;18592;49.708;10.900;2022-11-20T02:18:47;16.27;;;10.90;;
21432;SDS011;18592;49.708;10.900;2022-11-20T02:20:58;15.20;;;10.70;;
21432;SDS011;18592;49.708;10.900;2022-11-20T02:23:12;15.63;;;10.77;;
21432;SDS011;18592;49.708;10.900;2022-11-20T02:25:16;16.77;;;11.37;;
21432;SDS011;18592;49.708;10.900;2022-11-20T02:27:20;15.37;;;11.23;;
21432;SDS011;18592;49.708;10.900;2022-11-20T02:29:23;15.63;;;10.43;;
21432;SDS011;18592;49.708;10.900;2022-11-20T02:31:35;17.70;;;10.73;;
21432;SDS011;18592;49.708;10.900;2022-11-20T02:33:41;15.40;;;10.43;;
21432;SDS011;18592;49.708;10.900;2022-11-20T02:35:46;15.57;;;10.83;;
21432;SDS011;18592;49.708;10.900;2022-11-20T02:37:50;15.50;;;10.30;;
21432;SDS011;18592;49.708;10.900;2022-11-20T02:39:54;16.93;;;11.47;;
21432;SDS011;18592;49.708;10.900;2022-11-20T02:41:55;15.83;;;11.00;;
21432;SDS011;18592;49.708;10.900;2022-11-20T02:43:58;15.03;;;11.13;;
21432;SDS011;18592;49.708;10.900;2022-11-20T02:46:01;16.43;;;10.93;;
21432;SDS011;18592;49.708;10.900;2022-11-20T02:48:03;16.97;;;11.13;;
21432;SDS011;18592;49.708;10.900;2022-11-20T02:50:09;17.03;;;11.43;;
21432;SDS011;18592;49.708;10.900;2022-11-20T02:52:11;17.03;;;11.53;;
21432;SDS011;18592;49.708;10.900;2022-11-20T02:54:12;14.73;;;10.70;;
21432;SDS011;18592;49.708;10.900;2022-11-20T02:56:14;15.97;;;11.07;;
21432;SDS011;18592;49.708;10.900;2022-11-20T02:58:17;15.20;;;10.50;;
21432;SDS011;18592;49.708;10.900;2022-11-20T03:00:22;14.20;;;10.60;;
21432;SDS011;18592;49.708;10.900;2022-11-20T03:02:23;16.13;;;11.17;;
21432;SDS011;18592;49.708;10.900;2022-11-20T03:04:25;16.87;;;11.40;;
21432;SDS011;18592;49.708;10.900;2022-11-20T03:06:30;15.97;;;11.40;;
21432;SDS011;18592;49.708;10.900;2022-11-20T03:08:33;14.67;;;10.83;;
21432;SDS011;18592;49.708;10.900;2022-11-20T03:10:34;15.60;;;10.93;;
21432;SDS011;18592;49.708;10.900;2022-11-20T03:12:36;15.20;;;10.80;;
21432;SDS011;18592;49.708;10.900;2022-11-20T03:14:37;15.93;;;11.10;;
21432;SDS011;18592;49.708;10.900;2022-11-20T03:16:40;16.07;;;11.30;;
21432;SDS011;18592;49.708;10.900;2022-11-20T03:18:44;15.57;;;11.27;;
21432;SDS011;18592;49.708;10.900;2022-11-20T03:20:56;16.67;;;11.03;;
21432;SDS011;18592;49.708;10.900;2022-11-20T03:22:59;16.40;;;10.80;;
21432;SDS011;18592;49.708;10.900;2022-11-20T03:25:01;15.93;;;11.07;;
21432;SDS011;18592;49.708;10.900;2022-11-20T03:27:03;14.47;;;10.37;;
21432;SDS011;18592;49.708;10.900;2022-11-20T03:29:05;14.57;;;10.27;;
21432;SDS011;18592;49.708;10.900;2022-11-20T03:31:08;15.80;;;10.87;;
21432;SDS011;18592;49.708;10.900;2022-11-20T03:33:11;13.93;;;10.50;;
21432;SDS011;18592;49.708;10.900;2022-11-20T03:35:16;16.80;;;11.60;;
21432;SDS011;18592;49.708;10.900;2022-11-20T03:37:18;14.80;;;10.23;;
21432;SDS011;18592;49.708;10.900;2022-11-20T03:39:20;17.17;;;11.23;;
21432;SDS011;18592;49.708;10.900;2022-11-20T03:41:27;16.10;;;11.13;;
21432;SDS011;18592;49.708;10.900;2022-11-20T03:43:30;15.97;;;10.80;;
21432;SDS011;18592;49.708;10.900;2022-11-20T03:45:32;16.07;;;11.30;;
21432;SDS011;18592;49.708;10.900;2022-11-20T03:47:34;15.83;;;10.80;;
21432;SDS011;18592;49.708;10.900;2022-11-20T03:49:35;17.03;;;11.13;;
21432;SDS011;18592;49.708;10.900;2022-11-20T03:51:37;15.43;;;11.10;;
21432;SDS011;18592;49.708;10.900;2022-11-20T03:53:42;17.87;;;12.57;;
21432;SDS011;18592;49.708;10.900;2022-11-20T03:55:49;16.67;;;11.77;;
21432;SDS011;18592;49.708;10.900;2022-11-20T03:57:55;15.70;;;11.33;;
21432;SDS011;18592;49.708;10.900;2022-11-20T03:59:57;15.60;;;11.43;;
21432;SDS011;18592;49.708;10.900;2022-11-20T04:01:59;18.10;;;12.40;;
21432;SDS011;18592;49.708;10.900;2022-11-20T04:04:00;16.77;;;11.93;;
21432;SDS011;18592;49.708;10.900;2022-11-20T04:06:06;16.03;;;11.67;;
21432;SDS011;18592;49.708;10.900;2022-11-20T04:08:08;16.50;;;11.53;;
21432;SDS011;18592;49.708;10.900;2022-11-20T04:10:14;17.70;;;11.50;;
21432;SDS011;18592;49.708;10.900;2022-11-20T04:12:16;17.30;;;12.27;;
21432;SDS011;18592;49.708;10.900;2022-11-20T04:14:18;19.20;;;12.87;;
21432;SDS011;18592;49.708;10.900;2022-11-20T04:16:20;16.80;;;12.03;;
21432;SDS011;18592;49.708;10.900;2022-11-20T04:18:22;19.00;;;13.57;;
21432;SDS011;18592;49.708;10.900;2022-11-20T04:20:24;18.40;;;12.53;;
21432;SDS011;18592;49.708;10.900;2022-11-20T04:22:25;16.70;;;12.10;;
21432;SDS011;18592;49.708;10.900;2022-11-20T04:24:27;18.37;;;12.43;;
21432;SDS011;18592;49.708;10.900;2022-11-20T04:26:29;18.23;;;13.00;;
21432;SDS011;18592;49.708;10.900;2022-11-20T04:28:31;17.63;;;12.37;;
21432;SDS011;18592;49.708;10.900;2022-11-20T04:30:33;17.87;;;13.10;;
21432;SDS011;18592;49.708;10.900;2022-11-20T04:32:35;20.37;;;13.93;;
21432;SDS011;18592;49.708;10.900;2022-11-20T04:34:36;18.97;;;13.30;;
21432;SDS011;18592;49.708;10.900;2022-11-20T04:36:41;20.30;;;13.80;;
21432;SDS011;18592;49.708;10.900;2022-11-20T04:38:43;20.03;;;13.97;;
21432;SDS011;18592;49.708;10.900;2022-11-20T04:40:45;20.70;;;13.47;;
21432;SDS011;18592;49.708;10.900;2022-11-20T04:42:47;20.00;;;14.00;;
21432;SDS011;18592;49.708;10.900;2022-11-20T04:44:49;19.57;;;13.27;;
21432;SDS011;18592;49.708;10.900;2022-11-20T04:46:50;20.50;;;13.67;;
21432;SDS011;18592;49.708;10.900;2022-11-20T04:48:52;20.00;;;14.03;;
21432;SDS011;18592;49.708;10.900;2022-11-20T04:50:54;18.77;;;13.07;;
21432;SDS011;18592;49.708;10.900;2022-11-20T04:52:56;17.57;;;13.60;;
21432;SDS011;18592;49.708;10.900;2022-11-20T04:54:59;19.47;;;13.77;;
21432;SDS011;18592;49.708;10.900;2022-11-20T04:57:01;19.70;;;13.80;;
21432;SDS011;18592;49.708;10.900;2022-11-20T04:59:03;18.30;;;13.30;;
21432;SDS011;18592;49.708;10.900;2022-11-20T05:03:07;20.83;;;13.97;;
21432;SDS011;18592;49.708;10.900;2022-11-20T05:05:10;21.00;;;14.10;;
21432;SDS011;18592;49.708;10.900;2022-11-20T05:07:13;20.40;;;14.37;;
21432;SDS011;18592;49.708;10.900;2022-11-20T05:09:19;20.97;;;14.03;;
21432;SDS011;18592;49.708;10.900;2022-11-20T05:11:21;20.43;;;13.93;;
21432;SDS011;18592;49.708;10.900;2022-11-20T05:13:22;19.77;;;14.07;;
21432;SDS011;18592;49.708;10.900;2022-11-20T05:15:24;21.20;;;14.30;;
21432;SDS011;18592;49.708;10.900;2022-11-20T05:17:26;19.97;;;13.30;;
21432;SDS011;18592;49.708;10.900;2022-11-20T05:19:27;21.30;;;14.60;;
21432;SDS011;18592;49.708;10.900;2022-11-20T05:21:32;18.60;;;13.87;;
21432;SDS011;18592;49.708;10.900;2022-11-20T05:23:33;22.27;;;14.10;;
21432;SDS011;18592;49.708;10.900;2022-11-20T05:25:35;19.70;;;13.57;;
21432;SDS011;18592;49.708;10.900;2022-11-20T05:27:37;19.70;;;13.80;;
21432;SDS011;18592;49.708;10.900;2022-11-20T05:29:42;18.92;;;13.52;;
21432;SDS011;18592;49.708;10.900;2022-11-20T05:31:47;19.13;;;13.13;;
21432;SDS011;18592;49.708;10.900;2022-11-20T05:33:48;18.47;;;13.47;;
21432;SDS011;18592;49.708;10.900;2022-11-20T05:35:50;19.07;;;13.93;;
21432;SDS011;18592;49.708;10.900;2022-11-20T05:37:53;17.60;;;12.90;;
21432;SDS011;18592;49.708;10.900;2022-11-20T05:39:54;20.77;;;14.37;;
21432;SDS011;18592;49.708;10.900;2022-11-20T05:41:56;20.70;;;14.32;;
21432;SDS011;18592;49.708;10.900;2022-11-20T05:44:16;18.93;;;12.93;;
21432;SDS011;18592;49.708;10.900;2022-11-20T05:46:19;20.48;;;13.40;;
21432;SDS011;18592;49.708;10.900;2022-11-20T05:48:29;17.67;;;12.67;;
21432;SDS011;18592;49.708;10.900;2022-11-20T05:50:34;19.23;;;13.83;;
21432;SDS011;18592;49.708;10.900;2022-11-20T05:52:36;19.57;;;13.63;;
21432;SDS011;18592;49.708;10.900;2022-11-20T05:54:38;19.17;;;13.77;;
21432;SDS011;18592;49.708;10.900;2022-11-20T05:56:43;18.37;;;13.00;;
21432;SDS011;18592;49.708;10.900;2022-11-20T05:58:45;17.73;;;12.40;;
21432;SDS011;18592;49.708;10.900;2022-11-20T06:00:47;19.10;;;13.17;;
21432;SDS011;18592;49.708;10.900;2022-11-20T06:02:49;19.63;;;13.27;;
21432;SDS011;18592;49.708;10.900;2022-11-20T06:04:51;20.80;;;13.77;;
21432;SDS011;18592;49.708;10.900;2022-11-20T06:06:52;18.90;;;13.13;;
21432;SDS011;18592;49.708;10.900;2022-11-20T06:08:54;18.30;;;12.80;;
21432;SDS011;18592;49.708;10.900;2022-11-20T06:10:56;19.43;;;14.03;;
21432;SDS011;18592;49.708;10.900;2022-11-20T06:13:00;18.93;;;13.30;;
21432;SDS011;18592;49.708;10.900;2022-11-20T06:15:05;19.70;;;13.30;;
21432;SDS011;18592;49.708;10.900;2022-11-20T06:17:07;19.87;;;13.60;;
21432;SDS011;18592;49.708;10.900;2022-11-20T06:19:09;18.50;;;12.77;;
21432;SDS011;18592;49.708;10.900;2022-11-20T06:23:17;20.77;;;12.93;;
21432;SDS011;18592;49.708;10.900;2022-11-20T06:25:18;18.53;;;13.10;;
21432;SDS011;18592;49.708;10.900;2022-11-20T06:27:20;19.40;;;13.10;;
21432;SDS011;18592;49.708;10.900;2022-11-20T06:29:22;18.73;;;13.20;;
21432;SDS011;18592;49.708;10.900;2022-11-20T06:31:24;19.87;;;14.13;;
21432;SDS011;18592;49.708;10.900;2022-11-20T06:33:29;17.90;;;12.37;;
21432;SDS011;18592;49.708;10.900;2022-11-20T06:35:31;18.33;;;13.10;;
21432;SDS011;18592;49.708;10.900;2022-11-20T06:37:33;18.17;;;12.90;;
21432;SDS011;18592;49.708;10.900;2022-11-20T06:39:37;19.60;;;12.80;;
21432;SDS011;18592;49.708;10.900;2022-11-20T06:41:39;18.93;;;12.83;;
21432;SDS011;18592;49.708;10.900;2022-11-20T06:43:40;18.83;;;13.33;;
21432;SDS011;18592;49.708;10.900;2022-11-20T06:45:45;17.93;;;12.87;;
21432;SDS011;18592;49.708;10.900;2022-11-20T06:47:47;16.98;;;12.05;;
21432;SDS011;18592;49.708;10.900;2022-11-20T06:49:49;19.43;;;12.73;;
21432;SDS011;18592;49.708;10.900;2022-11-20T06:51:50;19.77;;;13.50;;
21432;SDS011;18592;49.708;10.900;2022-11-20T06:53:52;18.70;;;12.43;;
21432;SDS011;18592;49.708;10.900;2022-11-20T06:55:55;18.07;;;12.97;;
21432;SDS011;18592;49.708;10.900;2022-11-20T06:57:57;18.90;;;12.80;;
21432;SDS011;18592;49.708;10.900;2022-11-20T06:59:59;18.33;;;12.80;;
21432;SDS011;18592;49.708;10.900;2022-11-20T07:02:01;18.30;;;12.57;;
21432;SDS011;18592;49.708;10.900;2022-11-20T07:04:02;18.07;;;13.03;;
21432;SDS011;18592;49.708;10.900;2022-11-20T07:06:07;18.67;;;12.70;;
21432;SDS011;18592;49.708;10.900;2022-11-20T07:08:09;21.07;;;14.47;;
21432;SDS011;18592;49.708;10.900;2022-11-20T07:10:11;23.90;;;16.73;;
21432;SDS011;18592;49.708;10.900;2022-11-20T07:12:17;25.33;;;16.83;;
21432;SDS011;18592;49.708;10.900;2022-11-20T07:14:19;22.60;;;15.83;;
21432;SDS011;18592;49.708;10.900;2022-11-20T07:16:20;21.83;;;15.53;;
21432;SDS011;18592;49.708;10.900;2022-11-20T07:18:22;24.00;;;16.60;;
21432;SDS011;18592;49.708;10.900;2022-11-20T07:20:27;21.17;;;15.03;;
21432;SDS011;18592;49.708;10.900;2022-11-20T07:22:29;21.73;;;15.53;;
21432;SDS011;18592;49.708;10.900;2022-11-20T07:24:34;21.40;;;14.23;;
21432;SDS011;18592;49.708;10.900;2022-11-20T07:26:48;21.15;;;15.13;;
21432;SDS011;18592;49.708;10.900;2022-11-20T07:28:52;20.90;;;14.63;;
21432;SDS011;18592;49.708;10.900;2022-11-20T07:30:54;21.23;;;14.97;;
21432;SDS011;18592;49.708;10.900;2022-11-20T07:32:57;20.80;;;14.37;;
21432;SDS011;18592;49.708;10.900;2022-11-20T07:34:58;22.70;;;14.90;;
21432;SDS011;18592;49.708;10.900;2022-11-20T07:37:00;19.60;;;13.93;;
21432;SDS011;18592;49.708;10.900;2022-11-20T07:39:09;19.53;;;13.57;;
21432;SDS011;18592;49.708;10.900;2022-11-20T07:41:10;20.43;;;14.07;;
21432;SDS011;18592;49.708;10.900;2022-11-20T07:43:16;21.63;;;14.37;;
21432;SDS011;18592;49.708;10.900;2022-11-20T07:45:18;22.63;;;14.50;;
21432;SDS011;18592;49.708;10.900;2022-11-20T07:47:20;20.17;;;13.70;;
21432;SDS011;18592;49.708;10.900;2022-11-20T07:49:22;22.20;;;15.40;;
21432;SDS011;18592;49.708;10.900;2022-11-20T07:51:24;19.13;;;13.57;;
21432;SDS011;18592;49.708;10.900;2022-11-20T07:53:27;20.33;;;14.00;;
21432;SDS011;18592;49.708;10.900;2022-11-20T07:55:29;21.20;;;14.47;;
21432;SDS011;18592;49.708;10.900;2022-11-20T07:57:31;21.17;;;14.43;;
21432;SDS011;18592;49.708;10.900;2022-11-20T07:59:32;18.73;;;13.00;;
21432;SDS011;18592;49.708;10.900;2022-11-20T08:01:38;19.20;;;13.60;;
21432;SDS011;18592;49.708;10.900;2022-11-20T08:03:40;19.23;;;12.67;;
21432;SDS011;18592;49.708;10.900;2022-11-20T08:05:42;19.77;;;13.03;;
21432;SDS011;18592;49.708;10.900;2022-11-20T08:07:46;20.07;;;13.27;;
21432;SDS011;18592;49.708;10.900;2022-11-20T08:09:56;22.20;;;14.23;;
21432;SDS011;18592;49.708;10.900;2022-11-20T08:11:59;20.83;;;14.40;;
21432;SDS011;18592;49.708;10.900;2022-11-20T08:14:19;19.43;;;14.07;;
21432;SDS011;18592;49.708;10.900;2022-11-20T08:16:21;19.63;;;13.60;;
21432;SDS011;18592;49.708;10.900;2022-11-20T08:18:24;19.70;;;13.17;;
21432;SDS011;18592;49.708;10.900;2022-11-20T08:20:33;18.67;;;13.07;;
21432;SDS011;18592;49.708;10.900;2022-11-20T08:22:36;20.17;;;13.63;;
21432;SDS011;18592;49.708;10.900;2022-11-20T08:24:38;18.93;;;12.67;;
21432;SDS011;18592;49.708;10.900;2022-11-20T08:26:40;21.08;;;13.90;;
21432;SDS011;18592;49.708;10.900;2022-11-20T08:28:42;18.17;;;12.70;;
21432;SDS011;18592;49.708;10.900;2022-11-20T08:30:46;20.13;;;13.70;;
21432;SDS011;18592;49.708;10.900;2022-11-20T08:32:48;20.40;;;13.53;;
21432;SDS011;18592;49.708;10.900;2022-11-20T08:34:50;18.60;;;12.73;;
21432;SDS011;18592;49.708;10.900;2022-11-20T08:36:55;20.17;;;13.27;;
21432;SDS011;18592;49.708;10.900;2022-11-20T08:38:57;20.13;;;13.30;;
21432;SDS011;18592;49.708;10.900;2022-11-20T08:40:59;19.35;;;13.05;;
21432;SDS011;18592;49.708;10.900;2022-11-20T08:43:24;19.60;;;13.80;;
21432;SDS011;18592;49.708;10.900;2022-11-20T08:45:28;20.80;;;13.90;;
21432;SDS011;18592;49.708;10.900;2022-11-20T08:47:35;20.67;;;14.63;;
21432;SDS011;18592;49.708;10.900;2022-11-20T08:49:36;18.23;;;13.43;;
21432;SDS011;18592;49.708;10.900;2022-11-20T08:51:39;21.37;;;14.70;;
21432;SDS011;18592;49.708;10.900;2022-11-20T08:53:43;21.43;;;14.53;;
21432;SDS011;18592;49.708;10.900;2022-11-20T08:55:45;19.75;;;13.80;;
21432;SDS011;18592;49.708;10.900;2022-11-20T08:57:46;18.90;;;12.53;;
21432;SDS011;18592;49.708;10.900;2022-11-20T08:59:54;18.93;;;13.70;;
21432;SDS011;18592;49.708;10.900;2022-11-20T09:02:07;21.63;;;14.30;;
21432;SDS011;18592;49.708;10.900;2022-11-20T09:04:09;18.85;;;13.80;;
21432;SDS011;18592;49.708;10.900;2022-11-20T09:06:13;20.43;;;14.03;;
21432;SDS011;18592;49.708;10.900;2022-11-20T09:08:15;19.77;;;14.07;;
21432;SDS011;18592;49.708;10.900;2022-11-20T09:10:16;18.77;;;12.47;;
21432;SDS011;18592;49.708;10.900;2022-11-20T09:12:25;17.13;;;12.40;;
21432;SDS011;18592;49.708;10.900;2022-11-20T09:14:27;15.30;;;10.93;;
21432;SDS011;18592;49.708;10.900;2022-11-20T09:16:31;16.50;;;11.43;;
21432;SDS011;18592;49.708;10.900;2022-11-20T09:18:33;16.97;;;11.27;;
21432;SDS011;18592;49.708;10.900;2022-11-20T09:20:39;14.00;;;10.97;;
21432;SDS011;18592;49.708;10.900;2022-11-20T09:22:41;15.57;;;10.93;;
21432;SDS011;18592;49.708;10.900;2022-11-20T09:24:45;15.80;;;10.97;;
21432;SDS011;18592;49.708;10.900;2022-11-20T09:26:47;14.90;;;10.93;;
21432;SDS011;18592;49.708;10.900;2022-11-20T09:28:51;16.60;;;11.80;;
21432;SDS011;18592;49.708;10.900;2022-11-20T09:31:23;16.67;;;11.80;;
21432;SDS011;18592;49.708;10.900;2022-11-20T09:33:30;15.90;;;11.20;;
21432;SDS011;18592;49.708;10.900;2022-11-20T09:35:32;17.63;;;12.50;;
21432;SDS011;18592;49.708;10.900;2022-11-20T09:37:34;16.70;;;11.57;;
21432;SDS011;18592;49.708;10.900;2022-11-20T09:39:36;18.63;;;12.07;;
21432;SDS011;18592;49.708;10.900;2022-11-20T09:41:48;25.97;;;14.47;;
21432;SDS011;18592;49.708;10.900;2022-11-20T09:44:02;24.83;;;15.63;;
21432;SDS011;18592;49.708;10.900;2022-11-20T09:46:29;26.13;;;16.43;;
21432;SDS011;18592;49.708;10.900;2022-11-20T09:48:42;26.30;;;16.00;;
21432;SDS011;18592;49.708;10.900;2022-11-20T09:50:56;24.87;;;15.63;;
21432;SDS011;18592;49.708;10.900;2022-11-20T09:53:20;22.27;;;14.80;;
21432;SDS011;18592;49.708;10.900;2022-11-20T09:55:32;19.33;;;13.33;;
21432;SDS011;18592;49.708;10.900;2022-11-20T09:57:38;18.80;;;13.10;;
21432;SDS011;18592;49.708;10.900;2022-11-20T09:59:45;18.08;;;11.48;;
21432;SDS011;18592;49.708;10.900;2022-11-20T10:01:54;15.37;;;11.30;;
21432;SDS011;18592;49.708;10.900;2022-11-20T10:03:58;14.63;;;10.80;;
21432;SDS011;18592;49.708;10.900;2022-11-20T10:06:07;16.40;;;10.80;;
21432;SDS011;18592;49.708;10.900;2022-11-20T10:08:25;14.50;;;10.50;;
21432;SDS011;18592;49.708;10.900;2022-11-20T10:10:43;13.85;;;10.00;;
21432;SDS011;18592;49.708;10.900;2022-11-20T10:18:17;12.40;;;9.10;;
21432;SDS011;18592;49.708;10.900;2022-11-20T10:25:38;13.00;;;9.40;;
21432;SDS011;18592;49.708;10.900;2022-11-20T10:30:06;12.20;;;8.93;;
21432;SDS011;18592;49.708;10.900;2022-11-20T10:32:11;11.37;;;8.50;;
21432;SDS011;18592;49.708;10.900;2022-11-20T10:34:21;12.13;;;9.02;;
21432;SDS011;18592;49.708;10.900;2022-11-20T10:36:28;11.73;;;8.20;;
21432;SDS011;18592;49.708;10.900;2022-11-20T10:38:42;10.30;;;8.05;;
21432;SDS011;18592;49.708;10.900;2022-11-20T10:41:05;11.02;;;7.90;;
21432;SDS011;18592;49.708;10.900;2022-11-20T10:43:28;11.02;;;8.27;;
21432;SDS011;18592;49.708;10.900;2022-11-20T10:45:43;10.47;;;7.30;;
21432;SDS011;18592;49.708;10.900;2022-11-20T10:47:49;10.05;;;7.35;;
21432;SDS011;18592;49.708;10.900;2022-11-20T10:49:53;9.27;;;7.32;;
21432;SDS011;18592;49.708;10.900;2022-11-20T10:57:05;9.33;;;7.13;;
21432;SDS011;18592;49.708;10.900;2022-11-20T11:01:52;8.60;;;6.82;;
21432;SDS011;18592;49.708;10.900;2022-11-20T11:03:54;9.97;;;7.43;;
21432;SDS011;18592;49.708;10.900;2022-11-20T11:06:03;10.32;;;7.38;;
21432;SDS011;18592;49.708;10.900;2022-11-20T11:08:12;10.13;;;7.10;;
21432;SDS011;18592;49.708;10.900;2022-11-20T11:10:16;10.85;;;8.15;;
21432;SDS011;18592;49.708;10.900;2022-11-20T11:12:20;12.10;;;8.43;;
21432;SDS011;18592;49.708;10.900;2022-11-20T11:14:24;12.55;;;9.10;;
21432;SDS011;18592;49.708;10.900;2022-11-20T11:16:26;13.10;;;9.23;;
21432;SDS011;18592;49.708;10.900;2022-11-20T11:18:29;13.15;;;9.85;;
21432;SDS011;18592;49.708;10.900;2022-11-20T11:20:35;11.85;;;9.35;;
21432;SDS011;18592;49.708;10.900;2022-11-20T11:22:48;13.93;;;10.13;;
21432;SDS011;18592;49.708;10.900;2022-11-20T11:24:55;13.33;;;9.37;;
21432;SDS011;18592;49.708;10.900;2022-11-20T11:26:57;14.10;;;10.60;;
21432;SDS011;18592;49.708;10.900;2022-11-20T11:29:02;14.55;;;10.43;;
21432;SDS011;18592;49.708;10.900;2022-11-20T11:31:05;13.38;;;9.27;;
21432;SDS011;18592;49.708;10.900;2022-11-20T11:33:11;13.80;;;9.70;;
21432;SDS011;18592;49.708;10.900;2022-11-20T11:35:28;14.50;;;9.73;;
21432;SDS011;18592;49.708;10.900;2022-11-20T11:37:37;12.77;;;9.77;;
21432;SDS011;18592;49.708;10.900;2022-11-20T11:39:43;13.07;;;9.18;;
21432;SDS011;18592;49.708;10.900;2022-11-20T11:42:16;12.05;;;8.75;;
21432;SDS011;18592;49.708;10.900;2022-11-20T11:44:26;11.88;;;8.55;;
21432;SDS011;18592;49.708;10.900;2022-11-20T11:46:53;11.68;;;7.93;;
21432;SDS011;18592;49.708;10.900;2022-11-20T11:51:20;12.35;;;8.43;;
21432;SDS011;18592;49.708;10.900;2022-11-20T11:53:22;9.65;;;7.40;;
21432;SDS011;18592;49.708;10.900;2022-11-20T12:00:58;9.18;;;6.55;;
21432;SDS011;18592;49.708;10.900;2022-11-20T12:03:36;9.02;;;7.05;;
21432;SDS011;18592;49.708;10.900;2022-11-20T12:05:42;8.73;;;6.47;;
21432;SDS011;18592;49.708;10.900;2022-11-20T12:10:40;6.82;;;4.82;;
21432;SDS011;18592;49.708;10.900;2022-11-20T12:12:51;8.32;;;5.72;;
21432;SDS011;18592;49.708;10.900;2022-11-20T12:14:58;8.68;;;6.07;;
21432;SDS011;18592;49.708;10.900;2022-11-20T12:17:07;7.55;;;6.00;;
21432;SDS011;18592;49.708;10.900;2022-11-20T12:19:13;7.68;;;6.18;;
21432;SDS011;18592;49.708;10.900;2022-11-20T12:26:13;8.02;;;6.28;;
21432;SDS011;18592;49.708;10.900;2022-11-20T12:28:41;8.18;;;6.10;;
21432;SDS011;18592;49.708;10.900;2022-11-20T12:38:26;7.45;;;5.95;;
21432;SDS011;18592;49.708;10.900;2022-11-20T12:40:57;9.13;;;6.75;;
21432;SDS011;18592;49.708;10.900;2022-11-20T12:43:21;7.65;;;6.03;;
21432;SDS011;18592;49.708;10.900;2022-11-20T12:48:33;8.15;;;6.03;;
21432;SDS011;18592;49.708;10.900;2022-11-20T13:00:28;9.35;;;6.95;;
21432;SDS011;18592;49.708;10.900;2022-11-20T13:05:18;7.43;;;6.10;;
21432;SDS011;18592;49.708;10.900;2022-11-20T13:07:21;8.73;;;6.57;;
21432;SDS011;18592;49.708;10.900;2022-11-20T13:09:27;7.93;;;6.00;;
21432;SDS011;18592;49.708;10.900;2022-11-20T13:11:50;7.97;;;6.03;;
21432;SDS011;18592;49.708;10.900;2022-11-20T13:14:16;9.10;;;6.53;;